Terminal Aerodrome Forecast
Issued by NWS Mt. Holly, NJ

Home | Current Version | Previous Version | Text Only | Print | Product List | Glossary On
Versions: 1 2 3 4 5 6 7 8 9 10 11 12 13 14 15 16 17
752
FTUS41 KPHI 301722
TAFRDG
TAF
KRDG 301722Z 3018/3118 22005KT P6SM SCT030
      TEMPO 3021/3023 -SHRA BKN030
     FM310100 VRB02KT 6SM BR BKN120
     FM310400 VRB02KT 3SM BR SKC
     FM311200 33003KT 6SM BR SKC
     FM311400 35005KT P6SM FEW050=

USA.gov is the U.S. government's official web portal to all federal, state and local government web resources and services.